Flight Track Log - Related Links

Times and Time Zones

All times are in EDT time to prevent confusion due to time zone crossing. See the N934DL flight status page for this flight to view local times or setup timezone preferences in your user account.

Time Position Orientation Groundspeed Altitude Reporting Facility
EDT Latitude Longitude Course Direction KTS MPH feet Rate Location/Type
Sat 02:19:14 PM 39.0333 -84.6667 180° South 148 170 2,000  Level Cincinnati TRACON
Sat 02:19:56 PM 39.0000 -84.6667 180° South 213 245 3,600 3,176 Climbing Cincinnati TRACON
Sat 02:20:56 PM 38.9333 -84.6667 180° South 261 300 7,400 3,500 Climbing Cincinnati TRACON
Sat 02:22:32 PM 38.8169 -84.6956 191° South 287 330 12,700 2,369 Climbing Indianapolis Center
Sat 02:23:33 PM 38.7158 -84.7117 187° South 367 422 13,600 2,098 Climbing Indianapolis Center
Sat 02:24:35 PM 38.6089 -84.7278 187° South 386 444 17,000 3,122 Climbing Indianapolis Center
Sat 02:25:36 PM 38.4981 -84.7447 187° South 398 458 20,000 2,780 Climbing Indianapolis Center
Sat 02:26:38 PM 38.3853 -84.7606 186° South 405 466 22,700 1,463 Climbing Indianapolis Center
Sat 02:27:39 PM 38.2511 -84.7717 184° South 415 478 23,000 146 Climbing Indianapolis Center
Sat 02:28:41 PM 38.1344 -84.7817 184° South 420 483 23,000 732 Level Indianapolis Center
Sat 02:29:42 PM 38.0200 -84.7903 183° South 416 479 24,500 2,780 Climbing Indianapolis Center
Sat 02:30:44 PM 37.8972 -84.7683 172° South 440 506 28,700 2,878 Climbing Indianapolis Center
Sat 02:31:45 PM 37.7869 -84.7461 171° South 410 472 30,400 1,770 Climbing Indianapolis Center
Sat 02:32:46 PM 37.6714 -84.7250 172° South 416 479 32,300 1,854 Climbing Indianapolis Center
Sat 02:33:48 PM 37.5589 -84.7036 171° South 406 467 34,200 1,317 Climbing Indianapolis Center
Sat 02:34:49 PM 37.4489 -84.6878 173° South 399 459 35,000 390 Climbing Indianapolis Center
Sat 02:35:51 PM 37.3214 -84.6814 178° South 393 452 35,000  Level Indianapolis Center
Sat 02:36:52 PM 37.2133 -84.6750 177° South 391 450 35,000 390 Level Indianapolis Center
Sat 02:37:54 PM 37.1047 -84.6700 178° South 390 449 35,800 683 Climbing Indianapolis Center
Sat 02:38:55 PM 36.9928 -84.6644 178° South 400 460 36,400 585 Climbing Indianapolis Center
Sat 02:39:57 PM 36.8794 -84.6575 177° South 405 466 37,000 293 Climbing Indianapolis Center
Sat 02:40:58 PM 36.7656 -84.6528 178° South 407 468 37,000  Level Indianapolis Center
Sat 02:42:00 PM 36.6522 -84.6467 178° South 407 468 37,000  Level Indianapolis Center
Sat 02:43:01 PM 36.5394 -84.6414 178° South 405 466 37,000  Level Indianapolis Center
Sat 02:44:03 PM 36.4036 -84.6356 178° South 406 467 37,000  Level Indianapolis Center
Sat 02:45:04 PM 36.2900 -84.6297 178° South 407 468 37,000  Level Indianapolis Center
Sat 02:46:06 PM 36.1781 -84.6242 178° South 403 464 37,000  Level Indianapolis Center
Sat 02:46:51 PM 36.0903 -84.6219 179° South 403 464 37,000  Level Atlanta Center
Sat 02:47:51 PM 35.9903 -84.6161 177° South 403 464 37,000  Level Atlanta Center
Sat 02:48:51 PM 35.8775 -84.6128 179° South 403 464 37,000  Level Atlanta Center
Sat 02:49:51 PM 35.7650 -84.6069 178° South 403 464 37,000  Level Atlanta Center
Sat 02:50:51 PM 35.6522 -84.6011 178° South 403 464 37,000  Level Atlanta Center
Sat 02:51:51 PM 35.5375 -84.5978 179° South 403 464 37,000  Level Atlanta Center
Sat 02:52:51 PM 35.4208 -84.5917 178° South 403 464 37,000  Level Atlanta Center
Sat 02:53:51 PM 35.3103 -84.5858 178° South 403 464 37,000  Level Atlanta Center
Sat 02:54:51 PM 35.1975 -84.5803 178° South 403 464 37,000  Level Atlanta Center
Sat 02:55:51 PM 35.0828 -84.5742 178° South 403 464 37,000  Level Atlanta Center
Sat 02:56:51 PM 34.9703 -84.5711 179° South 403 464 37,000  Level Atlanta Center
Sat 02:57:51 PM 34.8575 -84.5653 178° South 403 464 37,000  Level Atlanta Center
Sat 02:58:51 PM 34.7469 -84.5619 179° South 403 464 37,000  Level Atlanta Center
Sat 02:59:51 PM 34.6364 -84.5539 177° South 403 464 37,000  Level Atlanta Center
Sat 03:00:51 PM 34.5278 -84.5506 179° South 403 464 37,000  Level Atlanta Center
Sat 03:01:51 PM 34.4172 -84.5425 177° South 398 458 37,000  Level Atlanta Center
Sat 03:02:51 PM 34.3025 -84.5392 179° South 404 465 37,000  Level Atlanta Center
Sat 03:03:51 PM 34.1794 -84.5333 178° South 399 459 37,000  Level Atlanta Center
Sat 03:04:51 PM 34.0731 -84.5303 179° South 408 470 37,000  Level Atlanta Center
Sat 03:05:51 PM 33.9603 -84.5272 179° South 413 475 37,000  Level Atlanta Center
Sat 03:06:51 PM 33.8433 -84.5189 177° South 401 461 37,000  Level Atlanta Center
Sat 03:07:51 PM 33.7350 -84.5108 176° South 407 468 37,000  Level Atlanta Center
Sat 03:08:51 PM 33.6242 -84.5078 179° South 407 468 37,000  Level Atlanta Center
Sat 03:09:51 PM 33.5136 -84.5047 179° South 402 463 37,000  Level Atlanta Center
Sat 03:10:51 PM 33.4011 -84.4992 178° South 402 463 37,000  Level Atlanta Center
Sat 03:11:51 PM 33.2800 -84.4936 178° South 402 463 37,000  Level Atlanta Center
Sat 03:12:51 PM 33.1672 -84.4906 179° South 402 463 37,000  Level Atlanta Center
Sat 03:13:51 PM 33.0567 -84.4825 177° South 402 463 37,000  Level Atlanta Center
Sat 03:14:51 PM 32.9439 -84.4769 178° South 402 463 37,000  Level Atlanta Center
Sat 03:15:51 PM 32.8333 -84.4764 180° South 402 463 37,000  Level Atlanta Center
Sat 03:16:51 PM 32.7206 -84.4658 175° South 402 463 37,000  Level Atlanta Center
Sat 03:17:51 PM 32.6058 -84.4653 180° South 402 463 37,000  Level Atlanta Center
Sat 03:18:51 PM 32.4911 -84.4575 177° South 402 463 37,000  Level Atlanta Center
Sat 03:19:51 PM 32.3764 -84.4519 178° South 402 463 37,000  Level Atlanta Center
Sat 03:20:51 PM 32.2636 -84.4492 179° South 402 463 37,000  Level Atlanta Center
Sat 03:21:51 PM 32.1467 -84.4411 177° South 402 463 37,000  Level Atlanta Center
Sat 03:22:51 PM 32.0319 -84.4381 179° South 407 468 37,000  Level Atlanta Center
Sat 03:23:52 PM 31.9275 -84.4322 177° South 418 481 37,000  Level Jacksonville Center
Sat 03:24:52 PM 31.8106 -84.4278 178° South 418 481 37,000  Level Jacksonville Center
Sat 03:25:52 PM 31.6958 -84.4211 177° South 418 481 37,000  Level Jacksonville Center
Sat 03:26:52 PM 31.5769 -84.4192 179° South 418 481 37,000  Level Jacksonville Center
Sat 03:27:52 PM 31.4581 -84.4122 177° South 423 487 37,000  Level Jacksonville Center
Sat 03:28:52 PM 31.3389 -84.4103 179° South 423 487 37,000  Level Jacksonville Center
Sat 03:29:52 PM 31.2203 -84.3986 175° South 423 487 37,000 -100 Level Jacksonville Center
Sat 03:30:52 PM 31.0992 -84.3944 178° South 423 487 36,800 -650 Descending Jacksonville Center
Sat 03:31:52 PM 30.9803 -84.3878 177° South 428 493 35,700 -900 Descending Jacksonville Center
Sat 03:32:52 PM 30.8656 -84.3567 167° South 428 493 35,000 -350 Descending Jacksonville Center
Sat 03:33:52 PM 30.7472 -84.3042 159° South 435 501 35,000  Level Jacksonville Center
Sat 03:34:52 PM 30.6331 -84.2494 158° South 440 506 35,000  Level Jacksonville Center
Sat 03:35:52 PM 30.5061 -84.1944 160° South 440 506 35,000  Level Jacksonville Center
Sat 03:36:52 PM 30.4044 -84.1497 159° South 437 503 35,000  Level Jacksonville Center
Sat 03:37:52 PM 30.2881 -84.0978 159° South 437 503 35,000 -50 Level Jacksonville Center
Sat 03:38:52 PM 30.1694 -84.0458 159° South 450 518 34,900 -500 Descending Jacksonville Center
Sat 03:39:52 PM 30.0550 -83.9942 159° South 450 518 34,000 -1,000 Descending Jacksonville Center
Sat 03:40:52 PM 29.9364 -83.9425 159° South 450 518 32,900 -1,200 Descending Jacksonville Center
Sat 03:41:52 PM 29.8219 -83.8933 160° South 445 512 31,600 -1,650 Descending Jacksonville Center
Sat 03:42:52 PM 29.6994 -83.8131 150° Southeast 452 520 29,600 -1,750 Descending Jacksonville Center
Sat 03:43:52 PM 29.5872 -83.7428 151° Southeast 457 526 28,100 -1,250 Descending Jacksonville Center
Sat 03:44:52 PM 29.4728 -83.6703 151° Southeast 462 532 27,100 -850 Descending Jacksonville Center
Sat 03:45:52 PM 29.3606 -83.5956 150° Southeast 462 532 26,400 -800 Descending Jacksonville Center
Sat 03:46:52 PM 29.2525 -83.5256 151° Southeast 455 524 25,500 -1,200 Descending Jacksonville Center
Sat 03:47:52 PM 29.1464 -83.4583 151° Southeast 450 518 24,000 -1,400 Descending Jacksonville Center
Sat 03:48:52 PM 29.0442 -83.3936 151° Southeast 439 505 22,700 -1,450 Descending Jacksonville Center
Sat 03:49:52 PM 28.9381 -83.3267 151° Southeast 439 505 21,100 -1,900 Descending Jacksonville Center
Sat 03:50:52 PM 28.8403 -83.2600 149° Southeast 428 493 18,900 -2,350 Descending Jacksonville Center
Sat 03:51:52 PM 28.7403 -83.2003 152° Southeast 416 479 16,400 -2,400 Descending Jacksonville Center
Sat 03:52:52 PM 28.6442 -83.1408 152° Southeast 406 467 14,100 -1,821 Descending Jacksonville Center
Sat 03:53:44 PM 28.5667 -83.0833 147° Southeast 386 444 13,000 -617 Descending Tampa TRACON
Sat 03:54:39 PM 28.4833 -83.0333 152° Southeast 379 436 13,000 -261 Level Tampa TRACON
Sat 03:55:39 PM 28.4000 -82.9833 152° Southeast 359 413 12,500 -1,200 Descending Tampa TRACON
Sat 03:56:39 PM 28.3167 -82.9333 152° Southeast 327 376 10,600 -1,524 Descending Tampa TRACON
Sat 03:57:45 PM 28.2667 -82.8500 124° Southeast 311 358 9,300 -1,571 Descending Tampa TRACON
Sat 03:58:45 PM 28.2667 -82.7500 90° East 309 356 7,300 -1,800 Descending Tampa TRACON
Sat 03:59:45 PM 28.2333 -82.6500 111° Southeast 304 350 5,700 -1,450 Descending Tampa TRACON
Sat 04:00:45 PM 28.1833 -82.5833 130° Southeast 282 325 4,400 -1,300 Descending Tampa TRACON
Sat 04:01:45 PM 28.1333 -82.5333 139° Southeast 228 262 3,100 -1,316 Descending Tampa TRACON
Sat 04:02:39 PM 28.0833 -82.5333 180° South 200 230 1,900 -1,100 Descending Tampa TRACON
Sat 04:03:45 PM 28.0333 -82.5333 180° South 142 163 900 -909 Descending Tampa TRACON

Login

Don't have an account? Register now (free) for customized features, flight alerts, and more!